createdAt,value
2022-11-05T00:00:26.663Z,9.89
2022-11-05T00:01:26.406Z,9.90
2022-11-05T00:02:26.324Z,9.90
2022-11-05T00:03:47.273Z,9.90
2022-11-05T00:04:30.766Z,9.90
2022-11-05T00:05:26.326Z,9.90
2022-11-05T00:06:26.063Z,9.89
2022-11-05T00:07:25.987Z,9.89
2022-11-05T00:08:25.918Z,9.87
2022-11-05T00:09:25.875Z,9.86
2022-11-05T00:10:25.917Z,9.87
2022-11-05T00:11:25.886Z,9.87
2022-11-05T00:12:25.694Z,9.87
2022-11-05T00:13:25.639Z,9.87
2022-11-05T00:14:25.563Z,9.89
2022-11-05T00:15:25.765Z,9.87
2022-11-05T00:16:46.398Z,9.89
2022-11-05T00:17:25.372Z,9.89
2022-11-05T00:18:25.287Z,9.89
2022-11-05T00:19:25.249Z,9.87
2022-11-05T00:20:25.181Z,9.89
2022-11-05T00:21:25.132Z,9.87
2022-11-05T00:22:25.043Z,9.89
2022-11-05T00:23:24.964Z,9.90
2022-11-05T00:24:25.070Z,9.91
2022-11-05T00:25:24.833Z,9.91
2022-11-05T00:26:24.993Z,9.90
2022-11-05T00:27:25.057Z,9.91
2022-11-05T00:28:24.659Z,9.89
2022-11-05T00:29:24.581Z,9.89
2022-11-05T00:30:24.524Z,9.90
2022-11-05T00:31:24.579Z,9.90
2022-11-05T00:32:24.407Z,9.90
2022-11-05T00:33:24.358Z,9.90
2022-11-05T00:34:24.499Z,9.90
2022-11-05T00:35:24.204Z,9.91
2022-11-05T00:36:24.148Z,9.93
2022-11-05T00:37:24.092Z,9.93
2022-11-05T00:38:24.015Z,9.94
2022-11-05T00:41:03.069Z,9.94
2022-11-05T00:42:05.015Z,9.94
2022-11-05T00:43:03.949Z,9.93
2022-11-05T00:44:03.892Z,9.93
2022-11-05T00:45:03.848Z,9.91
2022-11-05T00:46:03.742Z,9.90
2022-11-05T00:47:03.674Z,9.91
2022-11-05T00:48:03.831Z,9.93
2022-11-05T00:49:03.554Z,9.93
2022-11-05T00:50:03.610Z,9.93
2022-11-05T00:51:03.452Z,9.91
2022-11-05T00:52:03.383Z,9.91
2022-11-05T00:53:03.317Z,9.94
2022-11-05T00:54:03.239Z,9.93
2022-11-05T00:55:03.203Z,9.94
2022-11-05T00:56:03.107Z,9.94
2022-11-05T00:57:24.032Z,9.93
2022-11-05T00:58:02.999Z,9.94
2022-11-05T00:59:02.909Z,9.93
2022-11-05T01:00:02.879Z,9.93
2022-11-05T01:01:02.799Z,9.93
2022-11-05T01:02:02.874Z,9.90
2022-11-05T01:03:02.680Z,9.89
2022-11-05T01:04:02.720Z,9.89
2022-11-05T01:05:02.545Z,9.87
2022-11-05T01:06:02.474Z,9.89
2022-11-05T01:07:02.408Z,9.89
2022-11-05T01:08:02.352Z,9.90
2022-11-05T01:09:02.317Z,9.89
2022-11-05T01:10:02.237Z,9.89
2022-11-05T01:11:02.182Z,9.90
2022-11-05T01:12:02.105Z,9.91
2022-11-05T01:13:02.027Z,9.93
2022-11-05T01:14:02.010Z,9.93
2022-11-05T01:15:01.948Z,9.93
2022-11-05T01:16:01.840Z,9.94
2022-11-05T01:17:01.988Z,9.96
2022-11-05T01:18:01.938Z,9.96
2022-11-05T01:19:01.662Z,9.94
2022-11-05T01:20:01.587Z,9.93
2022-11-05T01:21:22.719Z,9.96
2022-11-05T01:22:01.453Z,9.96
2022-11-05T01:23:01.387Z,9.94
2022-11-05T01:24:01.302Z,9.93
2022-11-05T01:25:01.285Z,9.91
2022-11-05T01:26:01.325Z,9.91
2022-11-05T01:27:01.169Z,9.93
2022-11-05T01:28:01.057Z,9.93
2022-11-05T01:29:01.086Z,9.91
2022-11-05T01:30:00.935Z,9.91
2022-11-05T01:31:00.916Z,9.91
2022-11-05T01:32:01.555Z,9.93
2022-11-05T01:33:00.788Z,9.91
2022-11-05T01:34:00.708Z,9.91
2022-11-05T01:35:00.624Z,9.94
2022-11-05T01:36:00.570Z,9.96
2022-11-05T01:37:00.518Z,9.96
2022-11-05T01:38:00.423Z,9.94
2022-11-05T01:39:00.649Z,9.93
2022-11-05T01:40:00.319Z,9.90
2022-11-05T01:41:00.472Z,9.89
2022-11-05T01:42:00.186Z,9.86
2022-11-05T01:43:00.123Z,9.84
2022-11-05T01:44:00.080Z,9.84
2022-11-05T01:45:00.023Z,9.83
2022-11-05T01:45:59.916Z,9.81
2022-11-05T01:46:59.858Z,9.81
2022-11-05T01:47:59.795Z,9.79
2022-11-05T01:49:03.147Z,9.81
2022-11-05T01:49:59.674Z,9.81
2022-11-05T01:50:59.649Z,9.81
2022-11-05T01:51:59.558Z,9.83
2022-11-05T01:52:59.500Z,9.84
2022-11-05T01:53:59.412Z,9.84
2022-11-05T01:54:59.363Z,9.81
2022-11-05T01:55:59.354Z,9.83
2022-11-05T01:56:59.324Z,9.81
2022-11-05T01:57:59.115Z,9.79
2022-11-05T01:58:59.092Z,9.78
2022-11-05T01:59:59.182Z,9.78
2022-11-05T02:00:58.931Z,9.78
2022-11-05T02:01:59.049Z,9.78
2022-11-05T02:02:59.024Z,9.76
2022-11-05T02:03:58.801Z,9.78
2022-11-05T02:04:58.739Z,9.78
2022-11-05T02:05:58.668Z,9.78
2022-11-05T02:06:58.590Z,9.78
2022-11-05T02:07:58.520Z,9.76
2022-11-05T02:08:58.487Z,9.76
2022-11-05T02:09:58.417Z,9.76
2022-11-05T02:10:58.348Z,9.76
2022-11-05T02:11:58.378Z,9.74
2022-11-05T02:12:58.215Z,9.74
2022-11-05T02:13:58.159Z,9.74
2022-11-05T02:14:58.115Z,9.72
2022-11-05T02:15:58.015Z,9.74
2022-11-05T02:16:57.968Z,9.74
2022-11-05T02:17:57.896Z,9.75
2022-11-05T02:18:57.825Z,9.74
2022-11-05T02:19:57.762Z,9.75
2022-11-05T02:20:58.634Z,9.76
2022-11-05T02:21:57.658Z,9.76
2022-11-05T02:22:57.687Z,9.78
2022-11-05T02:23:57.620Z,9.78
2022-11-05T02:24:57.458Z,9.79
2022-11-05T02:25:57.390Z,9.78
2022-11-05T02:26:57.700Z,9.79
2022-11-05T02:27:57.250Z,9.81
2022-11-05T02:28:58.005Z,9.79
2022-11-05T02:29:57.131Z,9.78
2022-11-05T02:30:57.076Z,9.79
2022-11-05T02:31:57.027Z,9.78
2022-11-05T02:32:56.969Z,9.79
2022-11-05T02:33:57.091Z,9.78
2022-11-05T02:34:56.815Z,9.76
2022-11-05T02:35:56.752Z,9.78
2022-11-05T02:36:56.713Z,9.76
2022-11-05T02:37:56.594Z,9.75
2022-11-05T02:38:56.560Z,9.75
2022-11-05T02:39:56.507Z,9.75
2022-11-05T02:40:56.420Z,9.75
2022-11-05T02:41:59.281Z,9.74
2022-11-05T02:42:56.330Z,9.76
2022-11-05T02:43:56.243Z,9.78
2022-11-05T02:47:25.202Z,9.75
2022-11-05T02:48:26.143Z,9.72
2022-11-05T02:49:26.099Z,9.74
2022-11-05T02:50:26.012Z,9.71
2022-11-05T02:51:25.959Z,9.72
2022-11-05T02:52:25.879Z,9.72
2022-11-05T02:53:25.838Z,9.71
2022-11-05T02:54:25.779Z,9.69
2022-11-05T02:55:25.771Z,9.69
2022-11-05T02:56:25.622Z,9.66
2022-11-05T02:57:26.341Z,9.68
2022-11-05T02:58:25.516Z,9.66
2022-11-05T02:59:25.446Z,9.68
2022-11-05T03:00:25.376Z,9.68
2022-11-05T03:01:25.712Z,9.68
2022-11-05T03:02:25.454Z,9.69
2022-11-05T03:05:04.166Z,9.69
2022-11-05T03:06:05.090Z,9.68
2022-11-05T03:07:05.181Z,9.68
2022-11-05T03:08:04.987Z,9.66
2022-11-05T03:09:04.946Z,9.68
2022-11-05T03:10:04.960Z,9.68
2022-11-05T03:11:04.787Z,9.69
2022-11-05T03:12:04.751Z,9.69
2022-11-05T03:13:04.652Z,9.68
2022-11-05T03:14:04.577Z,9.69
2022-11-05T03:15:04.543Z,9.69
2022-11-05T03:16:04.469Z,9.71
2022-11-05T03:17:04.404Z,9.71
2022-11-05T03:18:04.327Z,9.69
2022-11-05T03:19:04.262Z,9.69
2022-11-05T03:20:04.228Z,9.68
2022-11-05T03:21:04.182Z,9.71
2022-11-05T03:22:04.074Z,9.74
2022-11-05T03:23:04.024Z,9.72
2022-11-05T03:24:03.973Z,9.72
2022-11-05T03:25:03.883Z,9.69
2022-11-05T03:26:03.822Z,9.68
2022-11-05T03:28:42.717Z,9.69
2022-11-05T03:29:43.623Z,9.66
2022-11-05T03:30:43.592Z,9.61
2022-11-05T03:31:43.522Z,9.58
2022-11-05T03:32:43.456Z,9.56
2022-11-05T03:33:43.335Z,9.54
2022-11-05T03:34:43.318Z,9.53
2022-11-05T03:35:43.274Z,9.53
2022-11-05T03:36:44.215Z,9.53
2022-11-05T03:37:43.140Z,9.53
2022-11-05T03:38:43.080Z,9.54
2022-11-05T03:39:43.015Z,9.53
2022-11-05T03:40:42.921Z,9.53
2022-11-05T03:41:43.660Z,9.50
2022-11-05T03:42:42.827Z,9.50
2022-11-05T03:43:42.733Z,9.48
2022-11-05T03:44:42.695Z,9.48
2022-11-05T03:45:42.648Z,9.47
2022-11-05T03:46:42.554Z,9.46
2022-11-05T03:47:42.500Z,9.46
2022-11-05T03:48:42.481Z,9.43
2022-11-05T03:49:42.383Z,9.40
2022-11-05T03:50:42.296Z,9.39
2022-11-05T03:51:42.218Z,9.38
2022-11-05T03:52:42.186Z,9.35
2022-11-05T03:53:42.089Z,9.33
2022-11-05T03:54:42.045Z,9.35
2022-11-05T03:55:41.997Z,9.36
2022-11-05T03:56:41.918Z,9.36
2022-11-05T03:57:41.848Z,9.36
2022-11-05T03:58:41.787Z,9.36
2022-11-05T03:59:41.846Z,9.35
2022-11-05T04:00:41.658Z,9.35
2022-11-05T04:01:41.776Z,9.35
2022-11-05T04:02:41.891Z,9.35
2022-11-05T04:03:41.749Z,9.38
2022-11-05T04:04:41.389Z,9.35
2022-11-05T04:05:41.395Z,9.36
2022-11-05T04:06:41.487Z,9.36
2022-11-05T04:07:41.225Z,9.36
2022-11-05T04:08:41.168Z,9.35
2022-11-05T04:09:41.117Z,9.33
2022-11-05T04:10:41.035Z,9.33
2022-11-05T04:11:40.960Z,9.32
2022-11-05T04:12:40.904Z,9.29
2022-11-05T04:13:40.851Z,9.28
2022-11-05T04:14:40.793Z,9.24
2022-11-05T04:16:01.694Z,9.24
2022-11-05T04:16:40.873Z,9.24
2022-11-05T04:17:40.566Z,9.21
2022-11-05T04:18:40.523Z,9.20
2022-11-05T04:19:40.440Z,9.20
2022-11-05T04:20:41.135Z,9.21
2022-11-05T04:21:40.353Z,9.21
2022-11-05T04:22:40.482Z,9.21
2022-11-05T04:23:40.211Z,9.23
2022-11-05T04:24:40.141Z,9.23
2022-11-05T04:25:40.080Z,9.21
2022-11-05T04:26:40.026Z,9.18
2022-11-05T04:27:39.943Z,9.20
2022-11-05T04:28:39.893Z,9.14
2022-11-05T04:29:39.805Z,9.13
2022-11-05T04:30:39.732Z,9.13
2022-11-05T04:31:39.669Z,9.13
2022-11-05T04:32:39.631Z,9.11
2022-11-05T04:33:39.578Z,9.10
2022-11-05T04:34:40.165Z,9.10
2022-11-05T04:35:39.439Z,9.13
2022-11-05T04:36:39.364Z,9.13
2022-11-05T04:37:39.307Z,9.13
2022-11-05T04:38:39.223Z,9.11
2022-11-05T04:39:39.188Z,9.11
2022-11-05T04:40:40.111Z,9.11
2022-11-05T04:41:39.058Z,9.10
2022-11-05T04:42:38.993Z,9.08
2022-11-05T04:43:38.900Z,9.05
2022-11-05T04:44:38.853Z,9.02
2022-11-05T04:45:38.828Z,9.04
2022-11-05T04:46:38.737Z,9.01
2022-11-05T04:47:38.666Z,8.99
2022-11-05T04:48:38.619Z,8.98
2022-11-05T04:49:38.531Z,8.98
2022-11-05T04:50:38.463Z,8.96
2022-11-05T04:53:17.376Z,8.95
2022-11-05T04:54:18.316Z,8.95
2022-11-05T04:55:18.230Z,8.95
2022-11-05T04:56:18.188Z,8.95
2022-11-05T04:57:18.119Z,8.95
2022-11-05T04:58:18.042Z,8.96
2022-11-05T04:59:17.979Z,8.96
2022-11-05T05:00:17.919Z,8.96
2022-11-05T05:01:18.035Z,8.95
2022-11-05T05:02:17.905Z,8.95
2022-11-05T05:03:17.757Z,8.95
2022-11-05T05:04:17.659Z,8.95
2022-11-05T05:05:17.605Z,8.95
2022-11-05T05:06:17.542Z,8.94
2022-11-05T05:07:17.482Z,8.91
2022-11-05T05:08:17.399Z,8.91
2022-11-05T05:09:17.369Z,8.87
2022-11-05T05:10:17.305Z,8.86
2022-11-05T05:11:17.242Z,8.87
2022-11-05T05:12:17.152Z,8.86
2022-11-05T05:13:17.114Z,8.81
2022-11-05T05:14:17.042Z,8.77
2022-11-05T05:15:17.001Z,8.73
2022-11-05T05:16:16.896Z,8.70
2022-11-05T05:17:16.827Z,8.65
2022-11-05T05:18:16.801Z,8.61
2022-11-05T05:19:16.696Z,8.56
2022-11-05T05:20:16.652Z,8.50
2022-11-05T05:21:16.613Z,8.47
2022-11-05T05:22:16.537Z,8.45
2022-11-05T05:23:16.608Z,8.44
2022-11-05T05:24:16.366Z,8.43
2022-11-05T05:25:16.332Z,8.41
2022-11-05T05:26:16.279Z,8.40
2022-11-05T05:27:16.205Z,8.38
2022-11-05T05:28:16.156Z,8.36
2022-11-05T05:29:16.076Z,8.34
2022-11-05T05:30:16.020Z,8.33
2022-11-05T05:31:15.951Z,8.29
2022-11-05T05:32:15.875Z,8.26
2022-11-05T05:33:15.824Z,8.25
2022-11-05T05:34:15.748Z,8.23
2022-11-05T05:35:15.688Z,8.22
2022-11-05T05:36:15.624Z,8.20
2022-11-05T05:37:15.554Z,8.20
2022-11-05T05:38:15.731Z,8.22
2022-11-05T05:39:15.470Z,8.22
2022-11-05T05:40:15.364Z,8.23
2022-11-05T05:41:15.320Z,8.22
2022-11-05T05:42:15.389Z,8.19
2022-11-05T05:43:15.293Z,8.18
2022-11-05T05:44:15.127Z,8.15
2022-11-05T05:45:36.028Z,8.11
2022-11-05T05:46:14.987Z,8.07
2022-11-05T05:47:14.911Z,8.04
2022-11-05T05:48:14.845Z,8.02
2022-11-05T05:49:14.782Z,8.01
2022-11-05T05:50:14.744Z,8.00
2022-11-05T05:51:14.612Z,7.95
2022-11-05T05:52:14.614Z,7.95
2022-11-05T05:53:14.480Z,7.93
2022-11-05T05:54:14.413Z,7.90
2022-11-05T05:55:14.373Z,7.89
2022-11-05T05:56:14.292Z,7.89
2022-11-05T05:57:14.252Z,7.89
2022-11-05T05:58:14.182Z,7.89
2022-11-05T05:59:14.115Z,7.89
2022-11-05T06:00:14.809Z,7.90
2022-11-05T06:01:18.665Z,7.90
2022-11-05T06:02:14.036Z,7.93
2022-11-05T06:04:52.715Z,7.92
2022-11-05T06:05:53.654Z,7.89
2022-11-05T06:06:53.722Z,7.87
2022-11-05T06:07:54.200Z,7.86
2022-11-05T06:08:53.476Z,7.86
2022-11-05T06:09:53.384Z,7.86
2022-11-05T06:10:53.400Z,7.86
2022-11-05T06:11:53.237Z,7.83
2022-11-05T06:12:53.193Z,7.77
2022-11-05T06:13:53.134Z,7.79
2022-11-05T06:14:53.095Z,7.77
2022-11-05T06:15:53.019Z,7.72
2022-11-05T06:16:52.951Z,7.71
2022-11-05T06:17:52.876Z,7.69
2022-11-05T06:18:52.819Z,7.67
2022-11-05T06:19:52.744Z,7.67
2022-11-05T06:20:52.723Z,7.67
2022-11-05T06:21:52.613Z,7.64
2022-11-05T06:22:54.193Z,7.64
2022-11-05T06:23:52.503Z,7.68
2022-11-05T06:24:52.420Z,7.68
2022-11-05T06:25:52.583Z,7.68
2022-11-05T06:26:52.314Z,7.68
2022-11-05T06:27:52.246Z,7.67
2022-11-05T06:28:52.192Z,7.67
2022-11-05T06:29:52.100Z,7.67
2022-11-05T06:30:52.071Z,7.67
2022-11-05T06:31:51.989Z,7.69
2022-11-05T06:32:52.699Z,7.69
2022-11-05T06:33:51.841Z,7.71
2022-11-05T06:34:51.794Z,7.71
2022-11-05T06:35:51.733Z,7.74
2022-11-05T06:36:51.634Z,7.75
2022-11-05T06:37:51.606Z,7.77
2022-11-05T06:38:51.573Z,7.77
2022-11-05T06:39:51.489Z,7.75
2022-11-05T06:40:51.427Z,7.79
2022-11-05T06:42:16.571Z,7.80
2022-11-05T06:42:51.276Z,7.80
2022-11-05T06:43:51.210Z,7.79
2022-11-05T06:44:51.205Z,7.77
2022-11-05T06:45:51.082Z,7.77
2022-11-05T06:46:51.014Z,7.75
2022-11-05T06:47:50.952Z,7.74
2022-11-05T06:48:50.892Z,7.72
2022-11-05T06:49:50.832Z,7.72
2022-11-05T06:50:50.900Z,7.72
2022-11-05T06:51:50.702Z,7.74
2022-11-05T06:52:50.653Z,7.75
2022-11-05T06:53:50.566Z,7.77
2022-11-05T06:54:50.525Z,7.74
2022-11-05T06:55:50.439Z,7.71
2022-11-05T06:57:11.375Z,7.72
2022-11-05T06:57:50.305Z,7.71
2022-11-05T06:58:50.262Z,7.72
2022-11-05T06:59:50.186Z,7.71
2022-11-05T07:00:50.216Z,7.72
2022-11-05T07:01:50.120Z,7.74
2022-11-05T07:02:50.026Z,7.77
2022-11-05T07:03:49.922Z,7.82
2022-11-05T07:04:49.869Z,7.83
2022-11-05T07:05:50.807Z,7.86
2022-11-05T07:06:49.742Z,7.85
2022-11-05T07:07:49.794Z,7.89
2022-11-05T07:08:49.624Z,7.90
2022-11-05T07:09:49.773Z,7.95
2022-11-05T07:10:49.476Z,7.97
2022-11-05T07:11:49.416Z,8.00
2022-11-05T07:12:49.358Z,8.01
2022-11-05T07:13:49.293Z,8.01
2022-11-05T07:15:10.220Z,7.98
2022-11-05T07:15:49.174Z,7.97
2022-11-05T07:16:49.093Z,7.97
2022-11-05T07:17:49.021Z,7.95
2022-11-05T07:18:48.992Z,7.90
2022-11-05T07:19:48.921Z,7.86
2022-11-05T07:20:48.842Z,7.86
2022-11-05T07:21:48.776Z,7.86
2022-11-05T07:22:48.727Z,7.87
2022-11-05T07:23:48.759Z,7.90
2022-11-05T07:24:48.585Z,7.90
2022-11-05T07:25:48.539Z,7.93
2022-11-05T07:26:48.471Z,7.95
2022-11-05T07:27:48.391Z,7.97
2022-11-05T07:28:48.348Z,8.01
2022-11-05T07:29:48.272Z,8.01
2022-11-05T07:30:48.217Z,8.05
2022-11-05T07:31:48.150Z,8.08
2022-11-05T07:33:09.570Z,8.11
2022-11-05T07:33:48.025Z,8.12
2022-11-05T07:34:47.955Z,8.15
2022-11-05T07:35:47.882Z,8.15
2022-11-05T07:36:47.812Z,8.15
2022-11-05T07:37:47.757Z,8.15
2022-11-05T07:38:47.724Z,8.18
2022-11-05T07:39:47.617Z,8.19
2022-11-05T07:40:47.562Z,8.23
2022-11-05T07:41:47.505Z,8.25
2022-11-05T07:42:47.428Z,8.28
2022-11-05T07:43:47.371Z,8.33
2022-11-05T07:44:47.307Z,8.36
2022-11-05T07:45:47.249Z,8.33
2022-11-05T07:46:47.169Z,8.28
2022-11-05T07:47:47.098Z,8.29
2022-11-05T07:48:47.038Z,8.30
2022-11-05T07:49:46.978Z,8.29
2022-11-05T07:50:47.217Z,8.33
2022-11-05T07:51:47.096Z,8.36
2022-11-05T07:52:46.775Z,8.38
2022-11-05T07:53:46.738Z,8.43
2022-11-05T07:54:46.655Z,8.45
2022-11-05T07:55:46.610Z,8.47
2022-11-05T07:56:46.557Z,8.45
2022-11-05T07:57:46.480Z,8.47
2022-11-05T07:58:46.424Z,8.48
2022-11-05T07:59:46.934Z,8.55
2022-11-05T08:00:46.627Z,8.59
2022-11-05T08:01:46.563Z,8.68
2022-11-05T08:02:46.454Z,8.73
2022-11-05T08:03:46.270Z,8.79
2022-11-05T08:04:46.053Z,8.81
2022-11-05T08:05:45.980Z,8.84
2022-11-05T08:06:45.901Z,8.86
2022-11-05T08:07:45.851Z,8.91
2022-11-05T08:10:24.654Z,9.13
2022-11-05T08:11:25.555Z,9.10
2022-11-05T08:12:25.515Z,9.04
2022-11-05T08:13:25.448Z,9.02
2022-11-05T08:14:25.488Z,9.01
2022-11-05T08:15:25.347Z,8.98
2022-11-05T08:16:25.237Z,8.95
2022-11-05T08:17:25.193Z,8.92
2022-11-05T08:18:25.119Z,8.86
2022-11-05T08:19:25.047Z,8.83
2022-11-05T08:20:25.074Z,8.79
2022-11-05T08:21:24.936Z,8.77
2022-11-05T08:22:24.875Z,8.79
2022-11-05T08:23:24.818Z,8.80
2022-11-05T08:24:24.729Z,8.79
2022-11-05T08:25:24.682Z,8.77
2022-11-05T08:26:24.595Z,8.80
2022-11-05T08:27:24.571Z,8.81
2022-11-05T08:28:24.509Z,8.84
2022-11-05T08:29:24.420Z,8.89
2022-11-05T08:30:24.397Z,8.99
2022-11-05T08:31:24.328Z,9.10
2022-11-05T08:32:24.231Z,9.18
2022-11-05T08:33:24.181Z,9.24
2022-11-05T08:34:24.097Z,9.40
2022-11-05T08:35:24.054Z,9.54
2022-11-05T08:36:23.965Z,9.66
2022-11-05T08:37:23.929Z,9.78
2022-11-05T08:38:23.847Z,9.89
2022-11-05T08:39:23.949Z,9.99
2022-11-05T08:40:23.716Z,10.07
2022-11-05T08:41:23.702Z,10.14
2022-11-05T08:42:23.601Z,10.18
2022-11-05T08:43:23.551Z,10.20
2022-11-05T08:44:23.464Z,10.25
2022-11-05T08:45:44.400Z,10.20
2022-11-05T08:46:23.480Z,10.23
2022-11-05T08:47:23.290Z,10.29
2022-11-05T08:48:23.219Z,10.32
2022-11-05T08:49:23.133Z,10.32
2022-11-05T08:50:23.100Z,10.29
2022-11-05T08:51:23.054Z,10.27
2022-11-05T08:52:23.072Z,10.29
2022-11-05T08:53:25.119Z,10.26
2022-11-05T08:54:26.758Z,10.27
2022-11-05T08:55:23.812Z,10.27
2022-11-05T08:56:24.352Z,10.27
2022-11-05T08:57:22.669Z,10.30
2022-11-05T08:58:22.570Z,10.36
2022-11-05T08:59:22.511Z,10.44
2022-11-05T09:00:22.442Z,10.51
2022-11-05T09:01:22.459Z,10.59
2022-11-05T09:02:22.500Z,10.63
2022-11-05T09:03:22.250Z,10.68
2022-11-05T09:04:22.182Z,10.76
2022-11-05T09:05:22.140Z,10.84
2022-11-05T09:06:22.517Z,10.96
2022-11-05T09:07:21.990Z,11.07
2022-11-05T09:08:21.934Z,11.19
2022-11-05T09:09:21.868Z,11.29
2022-11-05T09:10:21.836Z,11.39
2022-11-05T09:11:21.731Z,11.44
2022-11-05T09:12:21.697Z,11.46
2022-11-05T09:13:22.006Z,11.46
2022-11-05T09:14:21.760Z,11.39
2022-11-05T09:15:21.501Z,11.40
2022-11-05T09:16:21.420Z,11.37
2022-11-05T09:17:21.359Z,11.40
2022-11-05T09:18:21.415Z,11.44
2022-11-05T09:19:21.252Z,11.55
2022-11-05T09:20:21.168Z,11.61
2022-11-05T09:23:29.666Z,11.60
2022-11-05T09:24:30.595Z,11.60
2022-11-05T09:25:30.540Z,11.60
2022-11-05T09:26:30.466Z,11.57
2022-11-05T09:27:30.414Z,11.60
2022-11-05T09:28:30.351Z,11.58
2022-11-05T09:29:30.279Z,11.62
2022-11-05T09:30:30.198Z,11.76
2022-11-05T09:31:30.147Z,11.86
2022-11-05T09:32:30.095Z,11.94
2022-11-05T09:33:30.044Z,12.05
2022-11-05T09:34:29.965Z,12.17
2022-11-05T09:35:30.099Z,12.23
2022-11-05T09:36:29.841Z,12.29
2022-11-05T09:37:29.763Z,12.38
2022-11-05T09:38:29.720Z,12.52
2022-11-05T09:39:50.835Z,12.60
2022-11-05T09:40:29.577Z,12.74
2022-11-05T09:41:29.738Z,12.86
2022-11-05T09:42:29.444Z,12.92
2022-11-05T09:43:31.991Z,12.90
2022-11-05T09:44:29.310Z,12.97
2022-11-05T09:45:29.276Z,12.95
2022-11-05T09:46:29.193Z,13.00
2022-11-05T09:47:29.330Z,13.01
2022-11-05T09:48:29.077Z,13.03
2022-11-05T09:49:29.016Z,13.01
2022-11-05T09:50:28.952Z,13.00
2022-11-05T09:51:34.901Z,13.05
2022-11-05T09:52:28.830Z,13.17
2022-11-05T09:53:28.753Z,13.33
2022-11-05T09:54:28.756Z,13.28
2022-11-05T09:55:28.648Z,13.07
2022-11-05T09:56:29.153Z,12.89
2022-11-05T09:57:28.533Z,12.71
2022-11-05T09:58:29.069Z,12.57
2022-11-05T09:59:28.618Z,12.49
2022-11-05T10:00:28.301Z,12.65
2022-11-05T10:01:28.373Z,12.82
2022-11-05T10:02:28.261Z,12.70
2022-11-05T10:03:28.137Z,12.77
2022-11-05T10:04:28.042Z,12.92
2022-11-05T10:05:28.059Z,12.96
2022-11-05T10:06:29.159Z,12.92
2022-11-05T10:07:27.867Z,13.08
2022-11-05T10:08:27.807Z,13.32
2022-11-05T10:09:27.743Z,13.46
2022-11-05T10:10:27.680Z,13.44
2022-11-05T10:11:27.601Z,13.52
2022-11-05T10:12:27.554Z,13.54
2022-11-05T10:13:27.506Z,13.48
2022-11-05T10:14:27.431Z,13.36
2022-11-05T10:15:48.468Z,13.46
2022-11-05T10:16:27.295Z,13.60
2022-11-05T10:17:27.226Z,13.69
2022-11-05T10:18:27.178Z,13.55
2022-11-05T10:19:27.103Z,13.55
2022-11-05T10:20:27.047Z,13.67
2022-11-05T10:21:51.517Z,13.64
2022-11-05T10:22:26.892Z,13.48
2022-11-05T10:23:26.838Z,13.33
2022-11-05T10:24:26.798Z,13.15
2022-11-05T10:25:26.726Z,13.10
2022-11-05T10:26:26.681Z,13.22
2022-11-05T10:27:27.163Z,13.30
2022-11-05T10:28:26.529Z,13.39
2022-11-05T10:29:26.459Z,13.57
2022-11-05T10:30:26.400Z,13.57
2022-11-05T10:31:29.313Z,13.79
2022-11-05T10:32:26.282Z,13.99
2022-11-05T10:33:26.249Z,14.24
2022-11-05T10:34:26.164Z,14.37
2022-11-05T10:35:26.105Z,14.54
2022-11-05T10:36:26.019Z,14.70
2022-11-05T10:37:26.081Z,14.70
2022-11-05T10:38:25.905Z,14.77
2022-11-05T10:39:25.914Z,14.86
2022-11-05T10:40:25.817Z,14.91
2022-11-05T10:41:25.726Z,14.99
2022-11-05T10:42:25.675Z,14.98
2022-11-05T10:43:25.808Z,15.10
2022-11-05T10:44:25.536Z,15.21
2022-11-05T10:45:25.473Z,15.23
2022-11-05T10:46:25.408Z,15.01
2022-11-05T10:47:25.329Z,14.80
2022-11-05T10:48:25.275Z,14.86
2022-11-05T10:49:26.653Z,14.86
2022-11-05T10:50:25.144Z,14.92
2022-11-05T10:51:25.105Z,14.86
2022-11-05T10:52:25.024Z,14.72
2022-11-05T10:53:24.965Z,14.64
2022-11-05T10:54:24.905Z,14.70
2022-11-05T10:55:24.835Z,14.62
2022-11-05T10:56:24.784Z,14.57
2022-11-05T10:57:45.695Z,14.47
2022-11-05T10:58:24.630Z,14.46
2022-11-05T10:59:24.561Z,14.46
2022-11-05T11:00:24.533Z,14.39
2022-11-05T11:01:24.629Z,14.37
2022-11-05T11:02:24.442Z,14.36
2022-11-05T11:03:24.344Z,14.28
2022-11-05T11:04:24.407Z,14.24
2022-11-05T11:05:24.226Z,14.18
2022-11-05T11:06:24.158Z,14.14
2022-11-05T11:07:24.056Z,14.12
2022-11-05T11:08:24.021Z,14.12
2022-11-05T11:09:24.005Z,14.14
2022-11-05T11:10:23.885Z,14.15
2022-11-05T11:11:23.852Z,14.18
2022-11-05T11:12:23.986Z,14.14
2022-11-05T11:13:23.688Z,14.12
2022-11-05T11:14:23.648Z,14.12
2022-11-05T11:15:23.583Z,14.12
2022-11-05T11:16:23.525Z,14.12
2022-11-05T11:17:23.454Z,14.06
2022-11-05T11:18:23.366Z,14.03
2022-11-05T11:19:23.323Z,13.97
2022-11-05T11:20:23.263Z,13.95
2022-11-05T11:21:23.218Z,13.85
2022-11-05T11:22:23.368Z,13.78
2022-11-05T11:23:23.058Z,13.71
2022-11-05T11:24:23.012Z,13.66
2022-11-05T11:25:22.945Z,13.60
2022-11-05T11:26:22.866Z,13.57
2022-11-05T11:27:22.806Z,13.55
2022-11-05T11:28:22.987Z,13.57
2022-11-05T11:29:22.683Z,13.60
2022-11-05T11:30:22.621Z,13.62
2022-11-05T11:31:22.601Z,13.63
2022-11-05T11:32:22.467Z,13.66
2022-11-05T11:33:22.424Z,13.67
2022-11-05T11:34:22.383Z,13.64
2022-11-05T11:35:22.313Z,13.62
2022-11-05T11:36:22.225Z,13.59
2022-11-05T11:37:22.203Z,13.52
2022-11-05T11:38:22.127Z,13.49
2022-11-05T11:39:22.057Z,13.46
2022-11-05T11:40:22.015Z,13.49
2022-11-05T11:41:21.928Z,13.46
2022-11-05T11:42:21.880Z,13.48
2022-11-05T11:43:22.472Z,13.49
2022-11-05T11:44:21.751Z,13.51
2022-11-05T11:45:42.655Z,13.48
2022-11-05T11:46:21.622Z,13.46
2022-11-05T11:47:21.551Z,13.45
2022-11-05T11:48:21.462Z,13.44
2022-11-05T11:49:21.430Z,13.46
2022-11-05T11:50:21.357Z,13.54
2022-11-05T11:51:21.651Z,13.63
2022-11-05T11:52:21.232Z,13.70
2022-11-05T11:53:21.158Z,13.79
2022-11-05T11:54:21.075Z,13.84
2022-11-05T11:55:21.030Z,13.97
2022-11-05T11:56:20.987Z,14.07
2022-11-05T11:57:21.054Z,14.15
2022-11-05T11:58:20.862Z,14.27
2022-11-05T11:59:21.389Z,14.42
2022-11-05T12:00:20.738Z,14.52
2022-11-05T12:01:20.689Z,14.57
2022-11-05T12:02:20.732Z,14.69
2022-11-05T12:04:59.535Z,14.91
2022-11-05T12:06:00.328Z,14.88
2022-11-05T12:07:00.251Z,14.92
2022-11-05T12:08:00.183Z,14.92
2022-11-05T12:09:06.567Z,14.86
2022-11-05T12:10:00.067Z,14.94
2022-11-05T12:11:00.876Z,14.98
2022-11-05T12:12:00.955Z,14.95
2022-11-05T12:12:59.861Z,15.02
2022-11-05T12:13:59.812Z,14.69
2022-11-05T12:14:59.831Z,14.46
2022-11-05T12:15:59.687Z,14.21
2022-11-05T12:16:59.626Z,14.02
2022-11-05T12:17:59.556Z,13.85
2022-11-05T12:19:00.397Z,14.15
2022-11-05T12:19:59.428Z,14.40
2022-11-05T12:20:59.968Z,14.52
2022-11-05T12:21:59.308Z,14.51
2022-11-05T12:22:59.887Z,14.42
2022-11-05T12:24:00.123Z,14.29
2022-11-05T12:24:59.179Z,14.21
2022-11-05T12:25:59.063Z,14.12
2022-11-05T12:26:59.020Z,14.00
2022-11-05T12:27:59.825Z,13.84
2022-11-05T12:29:18.013Z,13.69
2022-11-05T12:29:58.790Z,13.59
2022-11-05T12:30:59.386Z,13.45
2022-11-05T12:31:58.640Z,13.36
2022-11-05T12:32:59.390Z,13.29
2022-11-05T12:33:58.545Z,13.19
2022-11-05T12:34:58.493Z,13.10
2022-11-05T12:35:58.563Z,13.03
2022-11-05T12:36:58.353Z,12.96
2022-11-05T12:37:58.294Z,12.93
2022-11-05T12:38:58.237Z,12.89
2022-11-05T12:39:58.186Z,12.86
2022-11-05T12:40:58.072Z,12.82
2022-11-05T12:41:58.045Z,12.74
2022-11-05T12:42:57.967Z,12.70
2022-11-05T12:43:58.109Z,12.62
2022-11-05T12:44:57.879Z,12.59
2022-11-05T12:45:57.797Z,12.57
2022-11-05T12:46:57.716Z,12.57
2022-11-05T12:47:57.667Z,12.54
2022-11-05T12:48:57.709Z,12.52
2022-11-05T12:49:57.548Z,12.49
2022-11-05T12:50:57.494Z,12.47
2022-11-05T12:51:57.414Z,12.42
2022-11-05T12:52:57.351Z,12.39
2022-11-05T12:53:57.285Z,12.38
2022-11-05T12:54:57.233Z,12.34
2022-11-05T12:55:57.869Z,12.31
2022-11-05T12:56:57.135Z,12.27
2022-11-05T12:57:57.033Z,12.24
2022-11-05T12:58:57.639Z,12.24
2022-11-05T12:59:56.903Z,12.27
2022-11-05T13:00:56.897Z,12.24
2022-11-05T13:01:56.857Z,12.21
2022-11-05T13:02:56.723Z,12.21
2022-11-05T13:03:56.860Z,12.23
2022-11-05T13:04:56.593Z,12.21
2022-11-05T13:06:02.942Z,12.21
2022-11-05T13:06:56.460Z,12.20
2022-11-05T13:07:56.373Z,12.19
2022-11-05T13:09:17.293Z,12.17
2022-11-05T13:09:56.273Z,12.19
2022-11-05T13:10:56.876Z,12.19
2022-11-05T13:11:56.141Z,12.19
2022-11-05T13:12:56.183Z,12.20
2022-11-05T13:13:56.010Z,12.23
2022-11-05T13:15:16.927Z,12.21
2022-11-05T13:15:55.863Z,12.21
2022-11-05T13:16:56.874Z,12.20
2022-11-05T13:17:55.765Z,12.23
2022-11-05T13:18:55.676Z,12.23
2022-11-05T13:19:55.631Z,12.24
2022-11-05T13:20:55.591Z,12.27
2022-11-05T13:21:55.509Z,12.29
2022-11-05T13:22:55.426Z,12.29
2022-11-05T13:23:55.382Z,12.31
2022-11-05T13:24:55.292Z,12.29